Nearby METAR Reports

 

KFRG - , , USA
Distance from station: SSW 12mi, 20km
Updated: 04/23/2021 9:53am
Clear
Clear
 Wind from W
Wind: W 12 mph , 19 km/h, Gust: 25 mph , 41 km/h
Temperature: 46°F , 8°C
Wind Chill: 40°F , 4°C
Dew Point: 21°F , -6°C
Humidity: 37%
Barometer: 30.03 inHg , 1016.9 hPa
Clouds: Clear
Visibility: 10 miles , 16 km
2021/04/23 13:53 KFRG 231353Z 27010G22KT 10SM CLR 08/M06 A3003 RMK AO2 SLP168 T00831056
KISP - , , USA
Distance from station: ESE 14mi, 23km
Updated: 04/23/2021 9:56am
Clear
Clear
 Wind from WNW
Wind: WNW 18 mph , 30 km/h, Gust: 24 mph , 39 km/h
Temperature: 48°F , 9°C
Wind Chill: 41°F , 5°C
Dew Point: 21°F , -6°C
Humidity: 34%
Barometer: 30.01 inHg , 1016.3 hPa
Clouds: Clear
Visibility: 10 miles , 16 km
2021/04/23 13:56 KISP 231356Z 29016G21KT 10SM CLR 09/M06 A3001 RMK AO2 SLP163 T00891056
 
KBDR - , , USA
Distance from station: NNE 21mi, 34km
Updated: 04/23/2021 9:52am
Clear
Clear
 Wind from W
Wind: W 18 mph , 30 km/h, Gust: 24 mph , 39 km/h
Temperature: 46°F , 8°C
Wind Chill: 39°F , 4°C
Dew Point: 21°F , -6°C
Humidity: 37%
Barometer: 29.99 inHg , 1015.6 hPa
Clouds: Clear
Visibility: 10 miles , 16 km
2021/04/23 13:52 KBDR 231352Z 27016G21KT 10SM CLR 08/M06 A2999 RMK AO2 SLP154 T00831056
KHPN - , , USA
Distance from station: WNW 22mi, 35km
Updated: 04/23/2021 9:56am
Clear
Clear
 Wind from WNW
Wind: WNW 20 mph , 31 km/h, Gust: 26 mph , 43 km/h
Temperature: 45°F , 7°C
Wind Chill: 37°F , 3°C
Dew Point: 21°F , -6°C
Humidity: 39%
Barometer: 29.99 inHg , 1015.6 hPa
Clouds: Clear
Visibility: 10 miles , 16 km
2021/04/23 13:56 KHPN 231356Z 29017G23KT 10SM CLR 07/M06 A2999 RMK AO2 SLP160 T00721061
 
KHWV - , , USA
Distance from station: ESE 26mi, 41km
Updated: 04/23/2021 9:56am
Clear
Clear
 Wind from WNW
Wind: WNW 20 mph , 31 km/h, Gust: 28 mph , 44 km/h
Temperature: 48°F , 9°C
Wind Chill: 41°F , 5°C
Dew Point: 21°F , -6°C
Humidity: 34%
Barometer: 30.01 inHg , 1016.3 hPa
Clouds: Clear
Visibility: 10 miles , 16 km
2021/04/23 13:56 KHWV 231356Z AUTO 29017G24KT 10SM CLR 09/M06 A3001 RMK AO2 SLP161 T00891061
KJFK - , , USA
Distance from station: SW 29mi, 46km
Updated: 04/23/2021 9:51am
Clear
Clear
 Wind from W
Wind: W 15 mph , 24 km/h, Gust: 24 mph , 39 km/h
Temperature: 48°F , 9°C
Wind Chill: 42°F , 6°C
Dew Point: 21°F , -6°C
Humidity: 34%
Barometer: 30.05 inHg , 1017.6 hPa
Clouds: Clear
Visibility: 10 miles , 16 km
2021/04/23 13:51 KJFK 231351Z 28013G21KT 10SM CLR 09/M06 A3005 RMK AO2 SLP175 T00891056
 
KLGA - , , USA
Distance from station: WSW 29mi, 47km
Updated: 04/23/2021 9:51am
Clear
Clear
 Wind from W
Wind: W 8 mph , 13 km/h, Gust: 21 mph , 33 km/h
Temperature: 48°F , 9°C
Wind Chill: 44°F , 7°C
Dew Point: 19°F , -7°C
Humidity: 32%
Barometer: 30.03 inHg , 1016.9 hPa
Clouds: Clear
Visibility: 10 miles , 16 km
2021/04/23 13:51 KLGA 231351Z 26007G18KT 10SM CLR 09/M07 A3003 RMK AO2 SLP168 T00891072